createdAt,value
2018-05-10T00:01:42.787Z,10.00
2018-05-10T00:04:14.023Z,14.33
2018-05-10T00:06:46.717Z,10.00
2018-05-10T00:09:18.143Z,11.33
2018-05-10T00:11:50.437Z,12.33
2018-05-10T00:14:22.315Z,12.00
2018-05-10T00:16:53.773Z,12.00
2018-05-10T00:19:24.493Z,10.00
2018-05-10T00:21:55.438Z,9.33
2018-05-10T00:24:27.756Z,9.67
2018-05-10T00:26:58.395Z,12.00
2018-05-10T00:29:32.152Z,10.00
2018-05-10T00:32:03.571Z,9.67
2018-05-10T00:34:36.195Z,10.00
2018-05-10T00:37:08.757Z,8.00
2018-05-10T00:39:41.542Z,10.00
2018-05-10T00:42:13.930Z,9.20
2018-05-10T00:44:46.382Z,10.67
2018-05-10T00:47:18.287Z,9.67
2018-05-10T00:49:49.772Z,12.00
2018-05-10T00:52:20.350Z,9.00
2018-05-10T00:54:55.758Z,12.00
2018-05-10T00:57:26.615Z,12.33
2018-05-10T00:59:59.207Z,12.00
2018-05-10T01:02:30.639Z,9.00
2018-05-10T01:05:02.914Z,8.25
2018-05-10T01:07:38.042Z,12.67
2018-05-10T01:10:10.890Z,12.33
2018-05-10T01:12:41.545Z,10.67
2018-05-10T01:15:15.225Z,12.33
2018-05-10T01:17:45.830Z,12.00
2018-05-10T01:20:18.187Z,12.00
2018-05-10T01:22:50.552Z,12.33
2018-05-10T01:25:22.115Z,12.00
2018-05-10T01:27:52.637Z,12.00
2018-05-10T01:30:23.209Z,12.00
2018-05-10T01:32:55.632Z,11.00
2018-05-10T01:36:32.768Z,7.33
2018-05-10T01:39:05.907Z,11.00
2018-05-10T01:41:36.475Z,12.33
2018-05-10T01:44:06.952Z,10.67
2018-05-10T01:46:43.873Z,14.67
2018-05-10T01:49:14.441Z,11.00
2018-05-10T01:51:44.945Z,14.67
2018-05-10T01:54:15.451Z,14.00
2018-05-10T01:56:47.782Z,13.00
2018-05-10T01:59:18.237Z,10.00
2018-05-10T02:01:48.708Z,13.00
2018-05-10T02:04:19.169Z,13.00
2018-05-10T02:06:49.712Z,14.00
2018-05-10T02:09:20.248Z,12.33
2018-05-10T02:11:50.746Z,14.00
2018-05-10T02:14:21.253Z,13.00
2018-05-10T02:16:53.301Z,12.67
2018-05-10T02:19:23.866Z,13.67
2018-05-10T02:21:54.365Z,13.33
2018-05-10T02:24:24.848Z,15.67
2018-05-10T02:26:55.361Z,10.33
2018-05-10T02:29:27.787Z,10.00
2018-05-10T02:32:00.101Z,10.67
2018-05-10T02:34:30.792Z,11.00
2018-05-10T02:37:01.261Z,13.00
2018-05-10T02:39:31.914Z,13.67
2018-05-10T02:42:02.462Z,12.33
2018-05-10T02:44:32.966Z,16.00
2018-05-10T02:47:03.420Z,13.67
2018-05-10T02:49:33.971Z,13.00
2018-05-10T02:52:04.545Z,16.00
2018-05-10T02:54:36.947Z,14.00
2018-05-10T02:57:08.387Z,10.33
2018-05-10T02:59:39.174Z,13.67
2018-05-10T03:02:09.712Z,15.67
2018-05-10T03:04:40.345Z,16.00
2018-05-10T03:07:10.916Z,13.67
2018-05-10T03:09:41.631Z,13.00
2018-05-10T03:12:12.432Z,14.67
2018-05-10T03:14:42.991Z,16.00
2018-05-10T03:17:13.530Z,14.67
2018-05-10T03:19:44.140Z,14.67
2018-05-10T03:22:14.355Z,14.67
2018-05-10T03:24:44.888Z,16.00
2018-05-10T03:27:15.388Z,13.00
2018-05-10T03:29:45.901Z,15.33
2018-05-10T03:32:18.249Z,14.00
2018-05-10T03:34:48.759Z,13.00
2018-05-10T03:37:19.265Z,13.00
2018-05-10T03:39:51.650Z,10.00
2018-05-10T03:42:24.226Z,13.00
2018-05-10T03:44:56.507Z,12.67
2018-05-10T03:47:28.847Z,13.00
2018-05-10T03:50:00.246Z,10.67
2018-05-10T03:52:30.838Z,14.67
2018-05-10T03:55:02.385Z,11.33
2018-05-10T03:57:33.373Z,11.00
2018-05-10T04:00:09.584Z,11.67
2018-05-10T04:02:48.815Z,13.00
2018-05-10T04:05:31.827Z,13.33
2018-05-10T04:08:13.323Z,11.67
2018-05-10T04:11:21.126Z,11.00
2018-05-10T04:13:51.959Z,10.00
2018-05-10T04:16:22.962Z,12.00
2018-05-10T04:18:54.548Z,14.00
2018-05-10T04:21:25.977Z,13.67
2018-05-10T04:23:58.191Z,11.00
2018-05-10T04:26:28.670Z,15.00
2018-05-10T04:28:59.118Z,14.33
2018-05-10T04:31:29.886Z,13.00
2018-05-10T04:34:00.403Z,14.00
2018-05-10T04:36:30.918Z,14.00
2018-05-10T04:39:01.434Z,14.67
2018-05-10T04:41:31.946Z,19.00
2018-05-10T04:44:02.500Z,17.00
2018-05-10T04:46:33.759Z,15.33
2018-05-10T04:49:04.539Z,20.33
2018-05-10T04:51:35.383Z,21.67
2018-05-10T04:54:08.067Z,21.00
2018-05-10T04:56:38.524Z,25.33
2018-05-10T04:59:10.055Z,23.00
2018-05-10T05:01:40.567Z,22.67
2018-05-10T05:04:11.967Z,30.33
2018-05-10T05:06:42.725Z,24.00
2018-05-10T05:09:13.248Z,25.00
2018-05-10T05:11:43.740Z,24.67
2018-05-10T05:14:14.282Z,25.33
2018-05-10T05:16:44.798Z,26.00
2018-05-10T05:19:15.662Z,26.00
2018-05-10T05:21:46.172Z,26.00
2018-05-10T05:24:16.698Z,23.33
2018-05-10T05:26:47.176Z,19.00
2018-05-10T05:29:17.625Z,22.67
2018-05-10T05:31:48.065Z,28.67
2018-05-10T05:34:18.575Z,23.00
2018-05-10T05:36:49.120Z,22.33
2018-05-10T05:39:22.274Z,27.25
2018-05-10T05:41:52.846Z,28.67
2018-05-10T05:44:23.335Z,28.67
2018-05-10T05:46:53.873Z,28.67
2018-05-10T05:49:24.787Z,29.00
2018-05-10T05:51:55.316Z,28.67
2018-05-10T05:54:25.902Z,31.67
2018-05-10T05:56:56.427Z,32.00
2018-05-10T05:59:26.981Z,33.00
2018-05-10T06:01:57.637Z,33.00
2018-05-10T06:04:28.232Z,29.33
2018-05-10T06:06:58.764Z,31.67
2018-05-10T06:09:29.267Z,27.00
2018-05-10T06:11:59.767Z,28.00
2018-05-10T06:14:30.262Z,26.67
2018-05-10T06:17:01.087Z,30.67
2018-05-10T06:19:31.810Z,28.00
2018-05-10T06:22:02.336Z,25.33
2018-05-10T06:24:33.109Z,22.00
2018-05-10T06:27:04.228Z,21.67
2018-05-10T06:29:34.695Z,23.33
2018-05-10T06:32:05.472Z,25.00
2018-05-10T06:34:36.083Z,23.67
2018-05-10T06:37:06.847Z,16.00
2018-05-10T06:39:37.320Z,23.67
2018-05-10T06:42:08.930Z,22.33
2018-05-10T06:44:39.997Z,19.00
2018-05-10T06:47:11.484Z,24.33
2018-05-10T06:49:41.995Z,19.67
2018-05-10T06:52:13.397Z,21.33
2018-05-10T06:54:44.129Z,17.33
2018-05-10T06:57:14.839Z,27.67
2018-05-10T06:59:45.199Z,30.67
2018-05-10T07:02:15.695Z,33.67
2018-05-10T07:04:46.490Z,34.67
2018-05-10T07:07:17.014Z,37.00
2018-05-10T07:09:47.371Z,34.00
2018-05-10T07:12:18.478Z,33.00
2018-05-10T07:14:49.091Z,36.33
2018-05-10T07:17:19.650Z,38.33
2018-05-10T07:19:50.595Z,35.00
2018-05-10T07:22:21.142Z,37.33
2018-05-10T07:24:51.662Z,34.00
2018-05-10T07:27:22.493Z,36.33
2018-05-10T07:29:52.960Z,36.67
2018-05-10T07:32:23.476Z,35.33
2018-05-10T07:34:54.036Z,37.00
2018-05-10T07:37:24.552Z,35.67
2018-05-10T07:39:55.332Z,35.67
2018-05-10T07:42:25.899Z,35.67
2018-05-10T07:44:56.506Z,32.67
2018-05-10T07:47:27.212Z,34.33
2018-05-10T07:49:57.879Z,35.67
2018-05-10T07:52:28.441Z,34.33
2018-05-10T07:54:58.939Z,35.00
2018-05-10T07:57:29.767Z,32.00
2018-05-10T08:00:01.286Z,33.00
2018-05-10T08:02:31.795Z,33.00
2018-05-10T08:05:03.112Z,34.00
2018-05-10T08:07:33.810Z,34.67
2018-05-10T08:10:05.087Z,34.67
2018-05-10T08:12:35.677Z,34.67
2018-05-10T08:15:07.177Z,35.67
2018-05-10T08:17:37.717Z,35.67
2018-05-10T08:20:08.373Z,36.33
2018-05-10T08:22:38.918Z,38.00
2018-05-10T08:25:09.537Z,33.67
2018-05-10T08:27:47.022Z,31.33
2018-05-10T08:30:17.656Z,30.33
2018-05-10T08:32:48.312Z,29.33
2018-05-10T08:35:18.818Z,22.33
2018-05-10T08:37:49.676Z,27.67
2018-05-10T08:40:20.295Z,28.00
2018-05-10T08:42:50.789Z,27.00
2018-05-10T08:45:21.385Z,26.00
2018-05-10T08:47:58.288Z,26.00
2018-05-10T08:50:28.792Z,24.67
2018-05-10T08:52:59.342Z,30.00
2018-05-10T08:55:29.805Z,27.67
2018-05-10T08:58:00.370Z,25.33
2018-05-10T09:00:31.109Z,27.67
2018-05-10T09:03:02.296Z,27.67
2018-05-10T09:05:32.802Z,25.33
2018-05-10T09:08:06.037Z,26.50
2018-05-10T09:10:36.583Z,27.00
2018-05-10T09:13:07.157Z,26.00
2018-05-10T09:15:38.123Z,24.00
2018-05-10T09:18:08.956Z,25.00
2018-05-10T09:20:39.451Z,26.33
2018-05-10T09:23:10.062Z,25.33
2018-05-10T09:25:40.598Z,27.00
2018-05-10T09:28:11.135Z,24.67
2018-05-10T09:30:42.066Z,26.67
2018-05-10T09:33:12.612Z,24.33
2018-05-10T09:35:43.182Z,27.00
2018-05-10T09:38:13.975Z,27.00
2018-05-10T09:40:44.526Z,27.67
2018-05-10T09:43:15.110Z,23.00
2018-05-10T09:45:45.886Z,23.00
2018-05-10T09:48:17.303Z,22.67
2018-05-10T09:50:47.840Z,19.00
2018-05-10T09:53:18.660Z,19.67
2018-05-10T09:55:49.201Z,18.33
2018-05-10T09:58:19.939Z,17.00
2018-05-10T10:00:50.541Z,17.67
2018-05-10T10:03:21.000Z,22.00
2018-05-10T10:05:51.858Z,23.33
2018-05-10T10:08:23.412Z,20.00
2018-05-10T10:10:54.067Z,22.00
2018-05-10T10:13:25.061Z,20.00
2018-05-10T10:16:02.112Z,17.67
2018-05-10T10:18:32.923Z,20.67
2018-05-10T10:21:04.643Z,20.67
2018-05-10T10:23:35.612Z,22.67
2018-05-10T10:26:07.481Z,20.00
2018-05-10T10:28:37.960Z,16.00
2018-05-10T10:31:08.769Z,16.00
2018-05-10T10:33:39.269Z,16.33
2018-05-10T10:36:09.823Z,18.67
2018-05-10T10:38:40.434Z,19.33
2018-05-10T10:41:11.270Z,18.33
2018-05-10T10:43:42.341Z,21.00
2018-05-10T10:46:12.911Z,18.67
2018-05-10T10:48:43.604Z,19.67
2018-05-10T10:51:14.432Z,22.67
2018-05-10T10:53:48.028Z,21.67
2018-05-10T10:56:21.189Z,17.67
2018-05-10T10:58:53.815Z,15.00
2018-05-10T11:01:24.559Z,20.33
2018-05-10T11:03:55.166Z,19.00
2018-05-10T11:06:26.053Z,21.00
2018-05-10T11:08:57.627Z,17.67
2018-05-10T11:11:28.713Z,21.67
2018-05-10T11:13:59.076Z,21.00
2018-05-10T11:16:29.677Z,21.00
2018-05-10T11:19:03.789Z,17.25
2018-05-10T11:21:34.388Z,19.67
2018-05-10T11:24:05.059Z,20.33
2018-05-10T11:26:35.680Z,16.67
2018-05-10T11:29:07.419Z,15.67
2018-05-10T11:31:38.031Z,20.33
2018-05-10T11:34:08.608Z,19.33
2018-05-10T11:36:39.191Z,18.00
2018-05-10T11:39:10.838Z,23.33
2018-05-10T11:41:41.899Z,19.00
2018-05-10T11:44:12.572Z,19.00
2018-05-10T11:46:43.260Z,16.67
2018-05-10T11:49:14.295Z,21.67
2018-05-10T11:51:45.144Z,19.33
2018-05-10T11:54:17.023Z,20.67
2018-05-10T11:56:52.684Z,18.67
2018-05-10T11:59:23.271Z,17.67
2018-05-10T12:01:54.686Z,19.33
2018-05-10T12:04:25.248Z,19.00
2018-05-10T12:06:55.861Z,21.67
2018-05-10T12:09:27.207Z,22.33
2018-05-10T12:11:57.784Z,17.67
2018-05-10T12:14:29.285Z,19.67
2018-05-10T12:17:00.104Z,18.67
2018-05-10T12:19:30.574Z,18.67
2018-05-10T12:22:01.233Z,17.00
2018-05-10T12:24:31.877Z,17.67
2018-05-10T12:27:02.744Z,18.33
2018-05-10T12:29:33.291Z,17.67
2018-05-10T12:32:04.242Z,17.67
2018-05-10T12:34:34.856Z,21.00
2018-05-10T12:37:05.384Z,15.67
2018-05-10T12:39:35.943Z,22.67
2018-05-10T12:42:06.417Z,23.33
2018-05-10T12:44:37.252Z,22.33
2018-05-10T12:47:08.328Z,20.00
2018-05-10T12:49:38.883Z,22.33
2018-05-10T12:52:13.683Z,22.67
2018-05-10T12:54:44.312Z,22.67
2018-05-10T12:57:14.958Z,23.00
2018-05-10T12:59:48.462Z,27.50
2018-05-10T13:02:19.003Z,27.00
2018-05-10T13:04:49.531Z,27.67
2018-05-10T13:07:20.704Z,27.67
2018-05-10T13:09:51.342Z,25.67
2018-05-10T13:12:21.886Z,27.00
2018-05-10T13:14:52.748Z,25.67
2018-05-10T13:17:23.892Z,26.67
2018-05-10T13:19:54.641Z,27.33
2018-05-10T13:22:25.240Z,26.00
2018-05-10T13:24:55.892Z,26.67
2018-05-10T13:27:31.566Z,24.33
2018-05-10T13:30:04.623Z,22.67
2018-05-10T13:32:35.203Z,26.67
2018-05-10T13:35:10.021Z,26.00
2018-05-10T13:37:40.585Z,23.33
2018-05-10T13:40:11.212Z,20.33
2018-05-10T13:42:42.230Z,21.33
2018-05-10T13:45:14.177Z,20.33
2018-05-10T13:47:44.670Z,18.00
2018-05-10T13:50:15.530Z,19.33
2018-05-10T13:52:46.122Z,18.00
2018-05-10T13:55:16.670Z,17.67
2018-05-10T13:57:47.213Z,15.33
2018-05-10T14:00:17.732Z,12.00
2018-05-10T14:02:48.609Z,11.67
2018-05-10T14:05:19.128Z,14.67
2018-05-10T14:07:49.699Z,11.33
2018-05-10T14:10:22.336Z,8.67
2018-05-10T14:12:54.678Z,6.00
2018-05-10T14:15:27.156Z,6.00
2018-05-10T14:18:01.923Z,5.33
2018-05-10T14:20:34.276Z,6.25
2018-05-10T14:23:05.745Z,6.33
2018-05-10T14:25:38.064Z,7.00
2018-05-10T14:28:10.359Z,5.67
2018-05-10T14:30:41.765Z,7.33
2018-05-10T14:33:14.177Z,5.00
2018-05-10T14:35:46.985Z,7.75
2018-05-10T14:38:18.327Z,7.33
2018-05-10T14:40:49.707Z,7.00
2018-05-10T14:43:21.216Z,6.33
2018-05-10T14:45:52.674Z,9.33
2018-05-10T14:48:26.370Z,9.00
2018-05-10T14:50:58.680Z,7.00
2018-05-10T14:53:30.141Z,6.00
2018-05-10T14:56:01.228Z,9.00
2018-05-10T14:58:31.738Z,9.00
2018-05-10T15:01:03.023Z,9.67
2018-05-10T15:03:34.811Z,10.33
2018-05-10T15:06:05.506Z,9.67
2018-05-10T15:08:36.933Z,8.33
2018-05-10T15:11:08.366Z,10.33
2018-05-10T15:13:39.812Z,10.00
2018-05-10T15:16:11.927Z,8.33
2018-05-10T15:18:44.554Z,9.67
2018-05-10T15:21:16.479Z,8.33
2018-05-10T15:23:48.717Z,10.00
2018-05-10T15:26:20.554Z,10.00
2018-05-10T15:28:51.096Z,9.00
2018-05-10T15:31:23.224Z,11.00
2018-05-10T15:33:55.490Z,12.00
2018-05-10T15:36:26.682Z,12.00
2018-05-10T15:38:58.172Z,11.67
2018-05-10T15:41:30.423Z,9.00
2018-05-10T15:44:01.861Z,9.00
2018-05-10T15:46:32.377Z,11.67
2018-05-10T15:49:03.750Z,9.00
2018-05-10T15:51:39.661Z,11.00
2018-05-10T15:54:10.310Z,14.00
2018-05-10T15:56:40.732Z,11.33
2018-05-10T15:59:11.373Z,14.00
2018-05-10T16:01:50.222Z,14.00
2018-05-10T16:04:20.971Z,12.00
2018-05-10T16:06:52.845Z,14.33
2018-05-10T16:09:24.798Z,17.67
2018-05-10T16:11:56.204Z,15.67
2018-05-10T16:14:26.803Z,16.00
2018-05-10T16:16:58.245Z,12.67
2018-05-10T16:19:28.926Z,14.67
2018-05-10T16:22:00.192Z,16.67
2018-05-10T16:24:30.903Z,15.67
2018-05-10T16:27:01.542Z,18.33
2018-05-10T16:29:32.783Z,18.33
2018-05-10T16:32:03.556Z,17.67
2018-05-10T16:34:34.091Z,18.67
2018-05-10T16:37:05.306Z,17.33
2018-05-10T16:39:36.261Z,20.67
2018-05-10T16:42:06.927Z,20.00
2018-05-10T16:44:37.509Z,19.00
2018-05-10T16:47:08.150Z,22.00
2018-05-10T16:49:38.760Z,19.00
2018-05-10T16:52:09.309Z,23.00
2018-05-10T16:54:39.870Z,19.67
2018-05-10T16:57:10.479Z,23.67
2018-05-10T16:59:41.139Z,22.00
2018-05-10T17:02:11.626Z,22.00
2018-05-10T17:04:42.588Z,21.67
2018-05-10T17:07:13.061Z,22.33
2018-05-10T17:09:43.748Z,20.67
2018-05-10T17:12:16.484Z,21.33
2018-05-10T17:14:47.033Z,22.00
2018-05-10T17:17:17.585Z,19.00
2018-05-10T17:19:49.482Z,19.00
2018-05-10T17:22:20.098Z,22.00
2018-05-10T17:24:50.853Z,22.67
2018-05-10T17:27:21.710Z,19.00
2018-05-10T17:29:52.300Z,20.00
2018-05-10T17:32:22.890Z,24.33
2018-05-10T17:34:53.893Z,21.33
2018-05-10T17:37:24.563Z,22.33
2018-05-10T17:39:55.186Z,21.67
2018-05-10T17:42:28.323Z,20.00
2018-05-10T17:44:59.000Z,20.00
2018-05-10T17:47:29.625Z,22.00
2018-05-10T17:50:00.256Z,18.00
2018-05-10T17:52:30.746Z,22.00
2018-05-10T17:55:01.533Z,20.67
2018-05-10T17:57:32.137Z,22.00
2018-05-10T18:00:04.615Z,25.00
2018-05-10T18:02:36.080Z,20.00
2018-05-10T18:05:06.729Z,21.33
2018-05-10T18:07:37.214Z,21.67
2018-05-10T18:10:08.183Z,23.00
2018-05-10T18:12:38.927Z,21.00
2018-05-10T18:15:09.967Z,24.00
2018-05-10T18:17:43.394Z,23.67
2018-05-10T18:20:14.032Z,22.67
2018-05-10T18:22:44.977Z,22.67
2018-05-10T18:25:15.612Z,23.67
2018-05-10T18:27:47.039Z,23.33
2018-05-10T18:30:20.361Z,26.00
2018-05-10T18:32:50.880Z,23.67
2018-05-10T18:35:21.164Z,27.00
2018-05-10T18:37:51.735Z,23.33
2018-05-10T18:40:22.319Z,23.33
2018-05-10T18:42:52.945Z,23.33
2018-05-10T18:45:23.259Z,25.00
2018-05-10T18:47:53.947Z,24.33
2018-05-10T18:50:24.292Z,25.00
2018-05-10T18:52:54.646Z,22.00
2018-05-10T18:55:25.257Z,25.67
2018-05-10T18:57:55.883Z,23.00
2018-05-10T19:00:26.221Z,27.00
2018-05-10T19:02:56.628Z,21.00
2018-05-10T19:05:27.075Z,22.00
2018-05-10T19:07:57.332Z,22.00
2018-05-10T19:10:27.765Z,18.33
2018-05-10T19:12:58.058Z,21.33
2018-05-10T19:15:28.477Z,21.00
2018-05-10T19:17:58.988Z,22.67
2018-05-10T19:20:29.444Z,24.33
2018-05-10T19:22:59.849Z,22.67
2018-05-10T19:25:30.879Z,22.33
2018-05-10T19:28:01.227Z,23.67
2018-05-10T19:30:31.684Z,25.00
2018-05-10T19:33:02.359Z,24.33
2018-05-10T19:35:32.644Z,24.00
2018-05-10T19:38:03.040Z,22.67
2018-05-10T19:40:33.935Z,21.67
2018-05-10T19:43:04.631Z,25.00
2018-05-10T19:45:35.039Z,22.00
2018-05-10T19:48:05.690Z,21.33
2018-05-10T19:50:36.076Z,22.33
2018-05-10T19:53:06.699Z,27.00
2018-05-10T19:55:37.327Z,24.00
2018-05-10T19:58:07.625Z,22.67
2018-05-10T20:00:37.983Z,23.67
2018-05-10T20:03:08.350Z,23.67
2018-05-10T20:05:39.471Z,20.67
2018-05-10T20:08:10.038Z,25.67
2018-05-10T20:10:40.644Z,22.67
2018-05-10T20:13:11.212Z,19.00
2018-05-10T20:15:41.530Z,23.67
2018-05-10T20:18:12.178Z,22.67
2018-05-10T20:20:42.811Z,21.00
2018-05-10T20:23:13.104Z,26.00
2018-05-10T20:25:43.635Z,24.67
2018-05-10T20:28:14.142Z,20.67
2018-05-10T20:30:44.384Z,25.00
2018-05-10T20:33:15.120Z,23.00
2018-05-10T20:35:45.329Z,22.67
2018-05-10T20:38:15.681Z,22.00
2018-05-10T20:40:46.254Z,23.00
2018-05-10T20:43:16.608Z,22.00
2018-05-10T20:45:46.970Z,21.00
2018-05-10T20:48:17.603Z,22.67
2018-05-10T20:50:47.952Z,24.00
2018-05-10T20:53:18.478Z,24.33
2018-05-10T20:55:49.191Z,26.33
2018-05-10T20:58:19.873Z,22.33
2018-05-10T21:00:50.483Z,19.33
2018-05-10T21:03:21.013Z,24.00
2018-05-10T21:05:51.394Z,25.00
2018-05-10T21:08:21.649Z,25.67
2018-05-10T21:10:52.634Z,22.67
2018-05-10T21:13:23.426Z,25.00
2018-05-10T21:15:54.049Z,23.67
2018-05-10T21:18:25.400Z,22.00
2018-05-10T21:20:56.030Z,22.67
2018-05-10T21:23:28.267Z,22.67
2018-05-10T21:25:58.538Z,24.00
2018-05-10T21:28:29.059Z,21.33
2018-05-10T21:30:59.347Z,21.33
2018-05-10T21:33:30.853Z,23.00
2018-05-10T21:36:01.708Z,22.00
2018-05-10T21:38:32.285Z,21.33
2018-05-10T21:41:02.644Z,23.33
2018-05-10T21:43:34.469Z,20.67
2018-05-10T21:46:04.821Z,18.00
2018-05-10T21:48:35.011Z,17.00
2018-05-10T21:51:05.288Z,21.67
2018-05-10T21:53:36.345Z,17.00
2018-05-10T21:56:06.619Z,23.00
2018-05-10T21:58:37.132Z,23.00
2018-05-10T22:01:07.437Z,18.67
2018-05-10T22:03:37.663Z,21.00
2018-05-10T22:06:08.266Z,23.00
2018-05-10T22:08:38.860Z,21.67
2018-05-10T22:11:09.463Z,22.00
2018-05-10T22:13:40.230Z,19.33
2018-05-10T22:16:10.907Z,21.67
2018-05-10T22:18:41.520Z,18.67
2018-05-10T22:21:12.389Z,22.67
2018-05-10T22:23:42.750Z,15.00
2018-05-10T22:26:13.366Z,22.00
2018-05-10T22:28:45.215Z,20.33
2018-05-10T22:31:15.529Z,22.67
2018-05-10T22:33:46.006Z,16.33
2018-05-10T22:36:16.245Z,15.00
2018-05-10T22:38:46.914Z,21.67
2018-05-10T22:41:17.503Z,19.67
2018-05-10T22:43:48.103Z,22.33
2018-05-10T22:46:20.530Z,20.33
2018-05-10T22:48:51.004Z,17.00
2018-05-10T22:51:21.627Z,20.00
2018-05-10T22:53:52.619Z,24.33
2018-05-10T22:56:22.979Z,21.33
2018-05-10T22:58:53.867Z,22.00
2018-05-10T23:01:24.674Z,25.00
2018-05-10T23:03:55.912Z,22.00
2018-05-10T23:06:26.450Z,22.33
2018-05-10T23:08:57.316Z,22.67
2018-05-10T23:11:34.368Z,25.67
2018-05-10T23:14:04.934Z,19.00
2018-05-10T23:16:36.395Z,16.67
2018-05-10T23:19:12.800Z,22.00
2018-05-10T23:21:43.629Z,14.00
2018-05-10T23:24:14.166Z,22.00
2018-05-10T23:26:51.063Z,22.33
2018-05-10T23:29:23.577Z,20.67
2018-05-10T23:31:54.357Z,22.00
2018-05-10T23:34:24.883Z,25.00
2018-05-10T23:36:56.642Z,25.00
2018-05-10T23:39:27.247Z,22.00
2018-05-10T23:41:58.345Z,21.67
2018-05-10T23:44:29.068Z,23.33
2018-05-10T23:46:59.747Z,23.00
2018-05-10T23:49:30.314Z,23.67
2018-05-10T23:52:00.803Z,19.00
2018-05-10T23:54:31.330Z,22.67
2018-05-10T23:57:02.098Z,17.00
2018-05-10T23:59:32.624Z,19.33
